Time;durP1;ratioP1;P1;durP2;ratioP2;P2;SDS_P1;SDS_P2;PMS_P1;PMS_P2;Temp;Humidity;BMP_temperature;BMP_pressure;BME280_temperature;BME280_humidity;BME280_pressure;Samples;Min_cycle;Max_cycle;Signal;HPM_P1;HPM_P2
2022/10/15 00:00:46;;;;;;;26.87;15.70;;;12.90;99.90;;;;;;4994199;28;20252;-83
2022/10/15 00:03:13;;;;;;;23.77;15.40;;;12.90;99.90;;;;;;4989174;28;20201;-82
2022/10/15 00:05:41;;;;;;;23.90;15.97;;;12.80;99.90;;;;;;4989533;28;20248;-82
2022/10/15 00:08:09;;;;;;;23.47;16.30;;;12.90;99.90;;;;;;4992297;28;20201;-83
2022/10/15 00:10:37;;;;;;;23.23;16.13;;;12.90;99.90;;;;;;4991924;28;20197;-83
2022/10/15 00:13:04;;;;;;;21.67;15.13;;;12.80;99.90;;;;;;4994399;28;20202;-82
2022/10/15 00:15:31;;;;;;;24.17;15.83;;;12.90;99.90;;;;;;4993864;28;20646;-82
2022/10/15 00:17:58;;;;;;;22.67;15.77;;;12.90;99.90;;;;;;4990403;28;20196;-82
2022/10/15 00:20:25;;;;;;;21.60;15.73;;;12.90;99.90;;;;;;4993361;28;20232;-85
2022/10/15 00:22:53;;;;;;;21.33;15.70;;;13.00;99.90;;;;;;4992852;28;20297;-84
2022/10/15 00:25:19;;;;;;;23.90;16.03;;;13.10;99.90;;;;;;4980713;28;20199;-84
2022/10/15 00:27:47;;;;;;;23.77;16.80;;;13.00;99.90;;;;;;4989199;28;20230;-84
2022/10/15 00:30:14;;;;;;;24.77;17.43;;;12.90;99.90;;;;;;4992816;28;20324;-83
2022/10/15 00:32:41;;;;;;;27.47;19.43;;;12.90;99.90;;;;;;5003188;28;20213;-83
2022/10/15 00:35:07;;;;;;;29.07;18.73;;;13.00;99.90;;;;;;4992269;28;20912;-83
2022/10/15 00:37:34;;;;;;;25.63;17.73;;;13.00;99.90;;;;;;5007124;28;20237;-82
2022/10/15 00:40:01;;;;;;;25.23;17.67;;;13.00;99.90;;;;;;4987578;28;20229;-83
2022/10/15 00:42:33;;;;;;;26.70;18.30;;;13.00;99.90;;;;;;4983930;28;20207;-83
2022/10/15 00:45:00;;;;;;;27.03;17.60;;;13.00;99.90;;;;;;4989046;28;20213;-82
2022/10/15 00:47:29;;;;;;;26.30;17.83;;;13.00;99.90;;;;;;4993263;28;20237;-83
2022/10/15 00:50:16;;;;;;;27.83;18.17;;;13.10;99.90;;;;;;4994863;28;20223;-84
2022/10/15 00:53:04;;;;;;;26.30;18.27;;;13.20;99.90;;;;;;4993625;28;20208;-83
2022/10/15 00:55:35;;;;;;;30.23;18.17;;;13.20;99.90;;;;;;4992759;28;20230;-84
2022/10/15 00:58:16;;;;;;;28.07;18.23;;;13.20;99.90;;;;;;4989716;28;20206;-84
2022/10/15 01:00:43;;;;;;;28.17;19.00;;;13.10;99.90;;;;;;4998099;28;20202;-83
2022/10/15 01:03:12;;;;;;;27.77;18.33;;;13.20;99.90;;;;;;4991933;28;20302;-83
2022/10/15 01:05:39;;;;;;;31.07;18.83;;;13.20;99.90;;;;;;4991938;28;20680;-83
2022/10/15 01:08:06;;;;;;;26.77;18.33;;;13.10;99.90;;;;;;4986624;28;20198;-83
2022/10/15 01:10:47;;;;;;;32.37;19.53;;;13.20;99.90;;;;;;4988405;28;20524;-84
2022/10/15 01:13:41;;;;;;;27.67;19.37;;;13.30;99.90;;;;;;4989698;28;20293;-83
2022/10/15 01:16:34;;;;;;;28.50;19.17;;;13.30;99.90;;;;;;4984600;28;20207;-84
2022/10/15 01:19:06;;;;;;;27.47;18.10;;;13.30;99.90;;;;;;5002304;28;20210;-83
2022/10/15 01:22:13;;;;;;;29.10;19.20;;;13.30;99.90;;;;;;4991216;28;20209;-85
2022/10/15 01:25:05;;;;;;;26.50;19.27;;;13.30;99.90;;;;;;4985964;28;20204;-85
2022/10/15 01:27:37;;;;;;;29.27;18.87;;;13.30;99.90;;;;;;4992839;28;20247;-85
2022/10/15 01:30:38;;;;;;;28.90;18.93;;;13.30;99.90;;;;;;4991868;28;20211;-85
2022/10/15 01:33:25;;;;;;;28.73;18.40;;;13.30;99.90;;;;;;4989968;28;20212;-84
2022/10/15 01:35:55;;;;;;;27.07;18.70;;;13.30;99.90;;;;;;4992856;28;20241;-84
2022/10/15 01:38:40;;;;;;;28.63;19.07;;;13.30;99.90;;;;;;5003170;28;20229;-84
2022/10/15 01:41:19;;;;;;;29.17;19.40;;;13.30;99.90;;;;;;4989066;28;20213;-84
2022/10/15 01:43:55;;;;;;;23.60;17.33;;;13.40;99.90;;;;;;4996123;28;20201;-85
2022/10/15 01:46:39;;;;;;;27.10;18.67;;;13.40;99.90;;;;;;4988850;28;20709;-85
2022/10/15 01:49:07;;;;;;;29.90;19.50;;;13.40;99.90;;;;;;4985278;28;20543;-85
2022/10/15 01:51:37;;;;;;;28.70;18.67;;;13.40;99.90;;;;;;5005759;28;20649;-84
2022/10/15 01:54:09;;;;;;;29.17;18.97;;;13.30;99.90;;;;;;4987625;28;20204;-84
2022/10/15 01:56:37;;;;;;;25.43;18.43;;;13.40;99.90;;;;;;4991461;28;20289;-85
2022/10/15 01:59:05;;;;;;;26.13;17.97;;;13.30;99.90;;;;;;4973808;28;21149;-85
2022/10/15 02:01:32;;;;;;;25.20;18.47;;;13.40;99.90;;;;;;4972495;28;20304;-84
2022/10/15 02:03:59;;;;;;;27.10;19.37;;;13.30;99.90;;;;;;4994329;28;20216;-84
2022/10/15 02:06:33;;;;;;;27.00;19.13;;;13.30;99.90;;;;;;5006322;28;20945;-84
2022/10/15 02:09:14;;;;;;;27.53;18.73;;;13.30;99.90;;;;;;4994851;28;20212;-84
2022/10/15 02:11:59;;;;;;;27.17;18.00;;;13.40;99.90;;;;;;5000919;28;20241;-84
2022/10/15 02:14:33;;;;;;;27.37;19.00;;;13.30;99.90;;;;;;4998627;28;20197;-85
2022/10/15 02:17:09;;;;;;;28.27;18.93;;;13.40;99.90;;;;;;4986265;28;20204;-86
2022/10/15 02:19:53;;;;;;;25.90;18.67;;;13.40;99.90;;;;;;4978002;28;20216;-87
2022/10/15 02:22:28;;;;;;;25.43;18.40;;;13.40;99.90;;;;;;4987679;28;20216;-85
2022/10/15 02:25:03;;;;;;;29.90;18.67;;;13.40;99.90;;;;;;4982358;28;20209;-84
2022/10/15 02:27:32;;;;;;;24.13;18.30;;;13.40;99.90;;;;;;4980527;28;20352;-84
2022/10/15 02:30:03;;;;;;;25.47;18.47;;;13.50;99.90;;;;;;4982253;28;20198;-83
2022/10/15 02:32:32;;;;;;;27.33;18.73;;;13.50;99.90;;;;;;4987547;28;20301;-83
2022/10/15 02:35:00;;;;;;;28.60;18.57;;;13.50;99.90;;;;;;4989540;28;20612;-83
2022/10/15 02:37:29;;;;;;;25.20;18.30;;;13.50;99.90;;;;;;4985258;28;20216;-84
2022/10/15 02:39:56;;;;;;;26.43;18.23;;;13.50;99.90;;;;;;4987851;28;20221;-83
2022/10/15 02:42:23;;;;;;;24.77;18.03;;;13.40;99.90;;;;;;5003492;28;20563;-83
2022/10/15 02:44:51;;;;;;;26.27;19.43;;;13.40;99.90;;;;;;4972424;28;20329;-84
2022/10/15 02:47:18;;;;;;;24.97;18.67;;;13.50;99.90;;;;;;4989125;28;20240;-82
2022/10/15 02:49:45;;;;;;;27.17;18.97;;;13.50;99.90;;;;;;4953857;28;20278;-82
2022/10/15 02:52:12;;;;;;;23.50;17.73;;;13.50;99.90;;;;;;4970868;28;20272;-83
2022/10/15 02:54:38;;;;;;;25.77;18.53;;;13.50;99.90;;;;;;4969640;28;20254;-83
2022/10/15 02:57:05;;;;;;;25.13;18.90;;;13.50;99.90;;;;;;4954599;28;20213;-84
2022/10/15 02:59:32;;;;;;;26.30;18.53;;;13.40;99.90;;;;;;4981909;28;20710;-83
2022/10/15 03:01:59;;;;;;;25.10;18.43;;;13.50;99.90;;;;;;4988417;28;20228;-83
2022/10/15 03:04:26;;;;;;;24.40;18.53;;;13.50;99.90;;;;;;4985348;28;20203;-85
2022/10/15 03:06:53;;;;;;;24.97;17.97;;;13.50;99.90;;;;;;4986270;28;20238;-83
2022/10/15 03:09:20;;;;;;;24.90;18.63;;;13.50;99.90;;;;;;4999788;28;20245;-85
2022/10/15 03:11:46;;;;;;;27.83;17.90;;;13.40;99.90;;;;;;4984690;28;20206;-83
2022/10/15 03:14:14;;;;;;;23.27;18.70;;;13.30;99.90;;;;;;4985404;28;20904;-83
2022/10/15 03:16:40;;;;;;;25.00;18.23;;;13.40;99.90;;;;;;5004293;28;20658;-83
2022/10/15 03:19:07;;;;;;;22.67;17.47;;;13.40;99.90;;;;;;4982152;28;20655;-84
2022/10/15 03:21:34;;;;;;;25.90;18.50;;;13.20;99.90;;;;;;4969781;28;20561;-84
2022/10/15 03:24:01;;;;;;;25.17;19.17;;;13.10;99.90;;;;;;4988130;28;20198;-82
2022/10/15 03:26:28;;;;;;;24.97;18.70;;;13.00;99.90;;;;;;5002016;28;20218;-84
2022/10/15 03:28:55;;;;;;;25.13;18.17;;;13.00;99.90;;;;;;4995271;28;20568;-85
2022/10/15 03:31:22;;;;;;;23.07;18.33;;;13.00;99.90;;;;;;4997895;28;20201;-84
2022/10/15 03:33:49;;;;;;;25.47;19.10;;;13.00;99.90;;;;;;4985706;28;20233;-83
2022/10/15 03:36:16;;;;;;;22.57;18.07;;;13.00;99.90;;;;;;4985719;28;20203;-83
2022/10/15 03:38:43;;;;;;;24.30;18.77;;;12.90;99.90;;;;;;4987675;28;20231;-83
2022/10/15 03:41:10;;;;;;;25.60;17.63;;;13.10;99.90;;;;;;5001157;28;20198;-84
2022/10/15 03:43:36;;;;;;;26.90;18.90;;;13.00;99.90;;;;;;4971434;28;20794;-85
2022/10/15 03:46:08;;;;;;;26.07;19.00;;;12.90;99.90;;;;;;4989028;28;20234;-84
2022/10/15 03:48:35;;;;;;;24.53;18.77;;;12.90;99.90;;;;;;4986591;28;20221;-85
2022/10/15 03:51:02;;;;;;;25.90;18.30;;;13.00;99.90;;;;;;4982676;28;20204;-84
2022/10/15 03:53:29;;;;;;;24.27;19.33;;;13.00;99.90;;;;;;4971012;28;20290;-85
2022/10/15 03:56:05;;;;;;;24.83;19.43;;;13.00;99.90;;;;;;4968541;28;20208;-83
2022/10/15 03:58:32;;;;;;;30.00;20.03;;;13.10;99.90;;;;;;4986038;28;20219;-84
2022/10/15 04:00:58;;;;;;;26.67;19.23;;;13.10;99.90;;;;;;4990011;28;20561;-84
2022/10/15 04:03:25;;;;;;;23.53;19.27;;;13.10;99.90;;;;;;4987097;28;20210;-83
2022/10/15 04:05:52;;;;;;;27.90;19.70;;;13.10;99.90;;;;;;4988098;28;20292;-83
2022/10/15 04:08:21;;;;;;;26.90;19.27;;;13.00;99.90;;;;;;4987605;28;20222;-83
2022/10/15 04:10:50;;;;;;;24.50;19.07;;;13.00;99.90;;;;;;4987547;28;20205;-83
2022/10/15 04:13:17;;;;;;;25.50;18.40;;;12.90;99.90;;;;;;5002067;28;20201;-83
2022/10/15 04:15:43;;;;;;;25.60;19.03;;;13.00;99.90;;;;;;4986452;28;20208;-83
2022/10/15 04:18:10;;;;;;;26.63;19.20;;;13.00;99.90;;;;;;4988433;28;20300;-83
2022/10/15 04:20:37;;;;;;;28.27;20.67;;;12.90;99.90;;;;;;4970285;28;20217;-85
2022/10/15 04:23:04;;;;;;;23.80;18.10;;;12.90;99.90;;;;;;4974999;28;20197;-83
2022/10/15 04:25:31;;;;;;;27.30;19.33;;;12.90;99.90;;;;;;4975257;28;20653;-83
2022/10/15 04:27:58;;;;;;;24.60;17.97;;;12.90;99.90;;;;;;4993972;28;20221;-83
2022/10/15 04:30:25;;;;;;;28.63;19.10;;;12.90;99.90;;;;;;4957994;28;20203;-83
2022/10/15 04:32:52;;;;;;;27.63;19.53;;;12.90;99.90;;;;;;5007311;28;20618;-84
2022/10/15 04:35:19;;;;;;;26.97;18.70;;;12.90;99.90;;;;;;4971365;28;20286;-83
2022/10/15 04:37:46;;;;;;;31.40;19.97;;;13.00;99.90;;;;;;4988817;28;20206;-82
2022/10/15 04:40:14;;;;;;;30.23;19.07;;;13.00;99.90;;;;;;4990712;28;20236;-82
2022/10/15 04:42:41;;;;;;;31.63;19.00;;;13.00;99.90;;;;;;4984960;28;20610;-82
2022/10/15 04:45:08;;;;;;;27.43;18.47;;;13.00;99.90;;;;;;5001984;28;20212;-83
2022/10/15 04:47:35;;;;;;;28.50;17.83;;;13.00;99.90;;;;;;4988575;28;20268;-82
2022/10/15 04:50:03;;;;;;;27.47;18.73;;;13.10;99.90;;;;;;4987926;28;20202;-84
2022/10/15 04:52:29;;;;;;;28.33;18.93;;;13.10;99.90;;;;;;4988459;28;20196;-82
2022/10/15 04:54:57;;;;;;;35.83;18.53;;;13.00;99.90;;;;;;4957262;28;20229;-83
2022/10/15 04:57:25;;;;;;;29.07;17.70;;;13.10;99.90;;;;;;4993660;28;20240;-83
2022/10/15 04:59:53;;;;;;;32.17;18.10;;;13.10;99.90;;;;;;4974854;28;20561;-82
2022/10/15 05:02:23;;;;;;;31.77;18.97;;;13.10;99.90;;;;;;5005390;28;20285;-83
2022/10/15 05:04:50;;;;;;;30.63;18.17;;;13.20;99.90;;;;;;4989525;28;20218;-83
2022/10/15 05:07:17;;;;;;;33.03;18.33;;;13.20;99.90;;;;;;4974980;28;20709;-83
2022/10/15 05:09:44;;;;;;;27.13;17.60;;;13.20;99.90;;;;;;5004215;28;20207;-81
2022/10/15 05:12:12;;;;;;;28.63;16.17;;;13.30;99.90;;;;;;4990724;28;20267;-82
2022/10/15 05:14:40;;;;;;;27.97;16.63;;;13.20;99.90;;;;;;4972534;28;20723;-82
2022/10/15 05:17:07;;;;;;;27.37;16.90;;;13.30;99.90;;;;;;4987422;28;20243;-82
2022/10/15 05:19:34;;;;;;;29.53;17.07;;;13.30;99.90;;;;;;4990969;28;20204;-82
2022/10/15 05:22:01;;;;;;;28.40;16.30;;;13.40;99.90;;;;;;4955842;28;20220;-82
2022/10/15 05:24:28;;;;;;;27.77;16.40;;;13.40;99.90;;;;;;4991787;28;20231;-83
2022/10/15 05:26:54;;;;;;;31.07;16.23;;;13.40;99.90;;;;;;4987962;28;20198;-83
2022/10/15 05:29:21;;;;;;;28.80;17.43;;;13.50;99.90;;;;;;5002838;28;20205;-82
2022/10/15 05:31:51;;;;;;;29.27;16.93;;;13.40;99.90;;;;;;4987552;28;20677;-84
2022/10/15 05:34:17;;;;;;;29.20;16.83;;;13.40;99.90;;;;;;5002517;28;20232;-82
2022/10/15 05:36:44;;;;;;;24.40;15.57;;;13.50;99.90;;;;;;4992070;28;20203;-82
2022/10/15 05:39:12;;;;;;;22.93;15.00;;;13.50;99.90;;;;;;4989539;28;20239;-83
2022/10/15 05:41:39;;;;;;;28.03;15.80;;;13.50;99.90;;;;;;4982579;28;20282;-83
2022/10/15 05:44:06;;;;;;;23.77;14.90;;;13.50;99.90;;;;;;4991472;28;20663;-82
2022/10/15 05:46:33;;;;;;;29.97;15.63;;;13.50;99.90;;;;;;4988818;28;20333;-81
2022/10/15 05:49:00;;;;;;;25.23;15.97;;;13.60;99.90;;;;;;4989749;28;20220;-84
2022/10/15 05:51:27;;;;;;;23.27;14.80;;;13.60;99.90;;;;;;4974113;28;20668;-83
2022/10/15 05:53:56;;;;;;;23.73;14.87;;;13.60;99.90;;;;;;4990378;28;20207;-83
2022/10/15 05:56:24;;;;;;;24.20;15.20;;;13.70;99.90;;;;;;4991599;28;20217;-84
2022/10/15 05:58:51;;;;;;;21.57;14.90;;;13.70;99.90;;;;;;4987296;28;20296;-82
2022/10/15 06:01:19;;;;;;;23.67;14.17;;;13.60;99.90;;;;;;4988438;28;20684;-83
2022/10/15 06:03:46;;;;;;;22.43;14.13;;;13.60;99.90;;;;;;4988324;28;20747;-85
2022/10/15 06:06:19;;;;;;;23.10;13.67;;;13.60;99.90;;;;;;4986933;28;20206;-82
2022/10/15 06:08:47;;;;;;;22.70;13.87;;;13.60;99.90;;;;;;5005008;28;20243;-83
2022/10/15 06:11:14;;;;;;;23.63;12.87;;;13.60;99.90;;;;;;4988071;28;20692;-84
2022/10/15 06:13:43;;;;;;;23.73;13.50;;;13.50;99.90;;;;;;4992504;28;20642;-83
2022/10/15 06:16:11;;;;;;;21.87;13.67;;;13.50;99.90;;;;;;4986519;28;20202;-84
2022/10/15 06:18:38;;;;;;;17.83;12.60;;;13.50;99.90;;;;;;4969879;28;20201;-83
2022/10/15 06:21:06;;;;;;;22.93;13.97;;;13.50;99.90;;;;;;4989173;28;20625;-85
2022/10/15 06:23:34;;;;;;;21.70;13.40;;;13.60;99.90;;;;;;4986526;28;20209;-85
2022/10/15 06:26:05;;;;;;;22.27;12.77;;;13.60;99.90;;;;;;4984106;28;20213;-84
2022/10/15 06:28:33;;;;;;;19.87;12.63;;;13.60;99.90;;;;;;4988310;28;20315;-83
2022/10/15 06:31:00;;;;;;;18.93;11.90;;;13.60;99.90;;;;;;4987102;28;20204;-82
2022/10/15 06:33:28;;;;;;;19.33;12.30;;;13.70;99.90;;;;;;4987967;28;20284;-84
2022/10/15 06:35:55;;;;;;;20.10;12.57;;;13.70;99.90;;;;;;4987458;28;20234;-84
2022/10/15 06:38:23;;;;;;;20.50;12.30;;;13.70;99.90;;;;;;4990360;28;20344;-83
2022/10/15 06:40:50;;;;;;;19.50;12.77;;;13.70;99.90;;;;;;4990510;28;20255;-85
2022/10/15 06:43:17;;;;;;;21.63;12.63;;;13.70;99.90;;;;;;4990018;28;20302;-84
2022/10/15 06:45:44;;;;;;;20.33;13.03;;;13.70;99.90;;;;;;4993763;28;20206;-85
2022/10/15 06:48:11;;;;;;;22.03;12.50;;;13.70;99.90;;;;;;4973423;28;20272;-86
2022/10/15 06:50:38;;;;;;;19.73;12.27;;;13.70;99.90;;;;;;4990592;28;20230;-84
2022/10/15 06:53:05;;;;;;;19.93;12.13;;;13.70;99.90;;;;;;4970781;28;20204;-84
2022/10/15 06:55:33;;;;;;;19.97;12.73;;;13.70;99.90;;;;;;4990069;28;20290;-83
2022/10/15 06:58:00;;;;;;;19.20;12.47;;;13.70;99.90;;;;;;4975173;28;20299;-84
2022/10/15 07:00:27;;;;;;;20.37;13.63;;;13.70;99.90;;;;;;4998268;28;20198;-84
2022/10/15 07:02:54;;;;;;;24.40;14.10;;;13.80;99.90;;;;;;4982526;28;20197;-83
2022/10/15 07:05:21;;;;;;;19.80;12.37;;;13.80;99.90;;;;;;5001840;28;20212;-84
2022/10/15 07:07:55;;;;;;;18.03;12.43;;;13.90;99.90;;;;;;5003398;28;20258;-84
2022/10/15 07:10:24;;;;;;;23.70;13.73;;;13.80;99.90;;;;;;4992630;28;20207;-83
2022/10/15 07:12:53;;;;;;;21.60;13.70;;;13.80;99.90;;;;;;4987848;28;20916;-83
2022/10/15 07:15:21;;;;;;;21.03;13.03;;;13.90;99.90;;;;;;4988822;28;20611;-83
2022/10/15 07:17:49;;;;;;;21.63;14.27;;;13.90;99.90;;;;;;4986391;28;20543;-84
2022/10/15 07:20:17;;;;;;;22.80;14.27;;;13.90;99.90;;;;;;4988057;28;20266;-84
2022/10/15 07:22:50;;;;;;;21.03;13.90;;;13.80;99.90;;;;;;4976247;28;20250;-83
2022/10/15 07:25:18;;;;;;;24.00;15.13;;;13.80;99.90;;;;;;4986468;28;20295;-86
2022/10/15 07:27:44;;;;;;;24.00;14.50;;;13.90;99.90;;;;;;4987787;28;20228;-83
2022/10/15 07:30:11;;;;;;;23.60;13.27;;;13.90;99.90;;;;;;5003442;28;20201;-83
2022/10/15 07:32:38;;;;;;;22.37;14.50;;;14.00;99.90;;;;;;4634580;28;10000406;-82
2022/10/15 07:35:05;;;;;;;21.27;14.47;;;14.00;99.90;;;;;;4983593;28;20198;-83
2022/10/15 07:37:32;;;;;;;23.77;13.97;;;14.00;99.90;;;;;;4983337;28;20648;-82
2022/10/15 07:39:59;;;;;;;20.83;13.17;;;14.00;99.90;;;;;;4982777;28;20228;-78
2022/10/15 07:42:26;;;;;;;22.70;14.23;;;14.00;99.90;;;;;;4981906;28;20213;-78
2022/10/15 07:44:53;;;;;;;23.57;13.53;;;14.10;99.90;;;;;;4997034;28;20204;-79
2022/10/15 07:47:20;;;;;;;21.40;13.60;;;14.20;99.90;;;;;;4980316;28;20252;-79
2022/10/15 07:49:47;;;;;;;23.00;14.13;;;14.20;99.90;;;;;;4981991;28;21568;-78
2022/10/15 07:52:15;;;;;;;23.20;14.07;;;14.20;99.90;;;;;;4978583;28;20195;-78
2022/10/15 07:54:44;;;;;;;21.33;14.73;;;14.30;99.90;;;;;;4981717;28;22568;-78
2022/10/15 07:57:10;;;;;;;21.50;13.40;;;14.30;99.90;;;;;;4985116;28;20236;-78
2022/10/15 07:59:39;;;;;;;22.73;14.57;;;14.40;99.90;;;;;;4988228;28;20199;-78
2022/10/15 08:02:05;;;;;;;26.70;14.57;;;14.40;99.90;;;;;;4983998;28;20225;-79
2022/10/15 08:04:33;;;;;;;22.57;14.10;;;14.60;99.90;;;;;;5000451;28;20213;-78
2022/10/15 08:07:00;;;;;;;21.37;14.03;;;14.90;99.90;;;;;;4985859;28;20304;-81
2022/10/15 08:09:27;;;;;;;21.03;12.83;;;15.20;99.90;;;;;;4980151;28;20214;-78
2022/10/15 08:11:54;;;;;;;19.33;13.30;;;15.40;99.90;;;;;;4978958;28;20212;-77
2022/10/15 08:14:21;;;;;;;17.77;13.70;;;15.50;99.90;;;;;;4987775;28;20904;-77
2022/10/15 08:16:48;;;;;;;20.00;12.30;;;15.40;99.90;;;;;;4999007;28;20202;-77
2022/10/15 08:19:16;;;;;;;19.60;12.00;;;15.50;99.90;;;;;;4985052;28;20212;-77
2022/10/15 08:21:44;;;;;;;15.90;11.67;;;15.30;99.90;;;;;;4985720;28;20299;-78
2022/10/15 08:24:13;;;;;;;13.97;10.93;;;15.30;99.90;;;;;;4987761;28;20309;-77
2022/10/15 08:26:40;;;;;;;15.00;11.07;;;15.20;99.90;;;;;;4986965;28;20329;-79
2022/10/15 08:29:08;;;;;;;16.57;10.63;;;15.10;99.90;;;;;;4989413;28;20231;-78
2022/10/15 08:31:35;;;;;;;15.23;10.17;;;15.00;99.90;;;;;;4991167;28;20659;-83
2022/10/15 08:34:02;;;;;;;17.70;10.63;;;15.00;99.90;;;;;;4990087;28;20207;-79
2022/10/15 08:36:29;;;;;;;16.37;10.47;;;14.90;99.90;;;;;;4989921;28;20297;-79
2022/10/15 08:38:58;;;;;;;14.87;10.10;;;15.00;99.90;;;;;;4982732;28;20226;-78
2022/10/15 08:41:38;;;;;;;15.37;10.60;;;15.10;99.90;;;;;;4983167;28;20217;-79
2022/10/15 08:44:11;;;;;;;14.97;9.83;;;15.10;99.90;;;;;;4984062;28;20211;-78
2022/10/15 08:46:50;;;;;;;12.30;9.07;;;14.90;99.90;;;;;;4989110;28;20602;-79
2022/10/15 08:49:43;;;;;;;13.30;9.33;;;15.00;99.90;;;;;;4987793;28;20245;-77
2022/10/15 08:52:20;;;;;;;13.07;9.50;;;14.90;99.90;;;;;;4985946;28;20680;-79
2022/10/15 08:54:47;;;;;;;14.43;8.97;;;15.00;99.90;;;;;;4984452;28;20590;-79
2022/10/15 08:57:17;;;;;;;13.50;8.43;;;15.00;99.90;;;;;;4985193;28;20260;-79
2022/10/15 09:00:12;;;;;;;11.43;8.03;;;15.10;99.90;;;;;;4985713;28;20582;-80
2022/10/15 09:03:03;;;;;;;13.50;8.37;;;15.10;99.90;;;;;;4980463;28;20667;-79
2022/10/15 09:05:48;;;;;;;11.37;8.50;;;15.20;99.90;;;;;;4987603;28;20591;-80
2022/10/15 09:08:30;;;;;;;12.60;7.83;;;15.30;99.90;;;;;;4985074;28;20221;-80
2022/10/15 09:11:16;;;;;;;9.50;7.57;;;15.30;99.90;;;;;;4988136;28;20633;-80
2022/10/15 09:13:44;;;;;;;10.17;6.60;;;15.30;99.90;;;;;;5004043;28;20205;-80
2022/10/15 09:16:18;;;;;;;9.50;6.27;;;15.30;99.90;;;;;;4986485;28;20226;-80
2022/10/15 09:18:50;;;;;;;8.00;6.17;;;15.30;99.90;;;;;;5001156;28;20210;-79
2022/10/15 09:21:18;;;;;;;7.43;5.90;;;15.30;99.90;;;;;;5002581;28;20208;-79
2022/10/15 09:23:45;;;;;;;10.00;6.13;;;15.40;99.90;;;;;;4977663;28;20212;-81
2022/10/15 09:26:29;;;;;;;8.70;6.17;;;15.50;99.90;;;;;;4983944;28;20199;-80
2022/10/15 09:29:07;;;;;;;8.77;5.67;;;15.40;99.90;;;;;;4982684;28;20324;-80
2022/10/15 09:32:08;;;;;;;7.73;4.90;;;15.30;99.90;;;;;;5000035;28;20202;-79
2022/10/15 09:35:15;;;;;;;7.27;5.23;;;15.40;99.90;;;;;;4983508;28;20426;-81
2022/10/15 09:38:16;;;;;;;7.07;5.17;;;15.40;99.90;;;;;;4983229;28;20203;-79
2022/10/15 09:40:55;;;;;;;8.50;5.20;;;15.30;99.90;;;;;;4982467;28;20210;-79
2022/10/15 09:43:29;;;;;;;7.27;4.97;;;15.40;99.90;;;;;;4998888;28;20194;-79
2022/10/15 09:45:57;;;;;;;8.07;4.97;;;15.30;99.90;;;;;;4981329;28;20205;-80
2022/10/15 09:48:26;;;;;;;7.37;5.50;;;15.30;99.90;;;;;;4983757;28;20226;-80
2022/10/15 09:51:11;;;;;;;7.00;5.27;;;15.30;99.90;;;;;;4982836;28;20233;-80
2022/10/15 09:54:07;;;;;;;5.70;4.83;;;15.40;99.90;;;;;;4978870;28;20202;-80
2022/10/15 09:56:40;;;;;;;6.83;5.23;;;15.30;99.90;;;;;;4983705;28;20216;-80
2022/10/15 09:59:16;;;;;;;6.93;5.00;;;15.10;99.90;;;;;;4999798;28;20197;-79
2022/10/15 10:01:59;;;;;;;7.00;4.80;;;15.10;99.90;;;;;;4985269;28;20268;-80
2022/10/15 10:04:29;;;;;;;9.83;5.20;;;15.20;99.90;;;;;;4980772;28;20603;-79
2022/10/15 10:07:00;;;;;;;6.17;4.83;;;15.20;99.90;;;;;;4982985;28;20866;-79
2022/10/15 10:09:48;;;;;;;5.80;4.37;;;15.30;99.90;;;;;;4987327;28;20218;-80
2022/10/15 10:12:23;;;;;;;6.73;4.80;;;15.30;99.90;;;;;;4987824;28;20196;-80
2022/10/15 10:15:19;;;;;;;6.97;4.77;;;15.30;99.90;;;;;;4986858;28;20195;-80
2022/10/15 10:17:52;;;;;;;6.50;4.53;;;15.30;99.90;;;;;;4984424;28;20273;-79
2022/10/15 10:20:22;;;;;;;6.33;4.53;;;15.40;99.90;;;;;;4986387;28;20209;-79
2022/10/15 10:22:55;;;;;;;5.90;4.53;;;15.30;99.90;;;;;;4999324;28;21590;-79
2022/10/15 10:25:26;;;;;;;6.10;4.20;;;15.20;99.90;;;;;;4987727;28;20541;-80
2022/10/15 10:28:12;;;;;;;7.17;4.60;;;15.20;99.90;;;;;;4986751;28;20298;-80
2022/10/15 10:31:02;;;;;;;5.30;4.17;;;15.20;99.90;;;;;;5001746;28;20277;-79
2022/10/15 10:33:33;;;;;;;5.97;4.10;;;15.30;99.90;;;;;;4983289;28;20204;-80
2022/10/15 10:36:01;;;;;;;8.23;4.43;;;15.30;99.90;;;;;;4999732;28;20598;-79
2022/10/15 10:38:34;;;;;;;6.80;4.53;;;15.30;99.90;;;;;;5003499;28;20243;-79
2022/10/15 10:41:08;;;;;;;6.70;4.43;;;15.30;99.90;;;;;;4985400;28;21112;-79
2022/10/15 10:43:40;;;;;;;4.43;3.47;;;15.30;99.90;;;;;;4986262;28;20207;-79
2022/10/15 10:46:13;;;;;;;4.83;3.50;;;15.40;99.90;;;;;;4985653;28;20263;-78
2022/10/15 10:48:46;;;;;;;4.57;3.83;;;15.40;99.90;;;;;;4984907;28;20218;-79
2022/10/15 10:51:17;;;;;;;5.37;3.67;;;15.40;99.90;;;;;;4982390;28;20644;-79
2022/10/15 10:53:48;;;;;;;4.13;3.70;;;15.40;99.90;;;;;;4988044;28;20214;-79
2022/10/15 10:56:19;;;;;;;4.33;3.70;;;15.40;99.90;;;;;;4984911;28;20211;-79
2022/10/15 10:58:47;;;;;;;4.90;3.70;;;15.40;99.90;;;;;;4982674;28;20720;-80
2022/10/15 11:01:15;;;;;;;4.47;3.63;;;15.50;99.90;;;;;;4980042;28;20233;-79
2022/10/15 11:03:44;;;;;;;4.30;3.80;;;15.50;99.90;;;;;;4983373;28;20194;-79
2022/10/15 11:06:32;;;;;;;5.37;3.93;;;15.50;99.90;;;;;;4985089;28;20228;-79
2022/10/15 11:09:14;;;;;;;5.27;3.87;;;15.50;99.90;;;;;;4985708;28;20580;-79
2022/10/15 11:12:16;;;;;;;3.70;3.40;;;15.50;99.90;;;;;;4982854;28;20530;-79
2022/10/15 11:15:11;;;;;;;4.10;3.37;;;15.50;99.90;;;;;;4985717;28;20244;-80
2022/10/15 11:18:12;;;;;;;6.07;3.70;;;15.70;99.90;;;;;;4999903;28;20565;-79
2022/10/15 11:21:02;;;;;;;4.77;3.83;;;15.70;99.90;;;;;;4976521;28;20230;-79
2022/10/15 11:23:38;;;;;;;3.90;3.50;;;15.70;99.90;;;;;;4983074;28;20675;-78
2022/10/15 11:26:56;;;;;;;4.93;3.73;;;15.80;99.90;;;;;;5003144;28;20204;-78
2022/10/15 11:29:52;;;;;;;6.30;3.60;;;15.80;99.90;;;;;;4934442;28;20689;-78
2022/10/15 11:32:25;;;;;;;4.90;3.67;;;15.80;99.90;;;;;;4983070;28;20211;-78
2022/10/15 11:35:26;;;;;;;3.80;3.40;;;15.80;99.90;;;;;;4985395;28;20650;-78
2022/10/15 11:38:31;;;;;;;5.43;3.40;;;15.90;99.90;;;;;;4978725;28;20231;-80
2022/10/15 11:41:21;;;;;;;3.43;3.13;;;15.90;99.90;;;;;;4985731;28;20324;-79
2022/10/15 11:44:07;;;;;;;4.73;3.03;;;16.00;99.90;;;;;;4979254;28;20197;-78
2022/10/15 11:47:08;;;;;;;6.00;3.57;;;16.00;99.90;;;;;;4984997;28;20710;-78
2022/10/15 11:49:45;;;;;;;3.43;3.00;;;16.00;99.90;;;;;;4983073;28;20689;-78
2022/10/15 11:52:41;;;;;;;3.70;3.30;;;16.00;99.90;;;;;;4983978;28;20641;-78
2022/10/15 11:55:18;;;;;;;4.20;3.00;;;16.10;99.90;;;;;;4985098;28;20610;-77
2022/10/15 11:57:47;;;;;;;4.57;2.80;;;16.10;99.90;;;;;;4987435;28;20349;-77
2022/10/15 12:00:32;;;;;;;4.10;3.17;;;16.10;99.90;;;;;;4983020;28;20231;-78
2022/10/15 12:03:12;;;;;;;3.90;3.17;;;16.20;99.90;;;;;;4982364;28;20196;-78
2022/10/15 12:05:51;;;;;;;3.90;3.20;;;16.20;99.90;;;;;;5000416;28;20198;-77
2022/10/15 12:08:22;;;;;;;3.57;3.27;;;16.20;99.90;;;;;;4999812;28;20292;-78
2022/10/15 12:10:57;;;;;;;3.83;3.37;;;16.20;99.90;;;;;;4983789;28;20237;-77
2022/10/15 12:13:35;;;;;;;3.33;3.03;;;16.30;99.90;;;;;;4984093;28;20192;-77
2022/10/15 12:16:05;;;;;;;4.40;3.40;;;16.30;99.90;;;;;;4987059;28;20212;-78
2022/10/15 12:19:07;;;;;;;5.60;3.40;;;16.40;99.90;;;;;;4983248;28;20204;-78
2022/10/15 12:21:45;;;;;;;4.00;3.60;;;16.50;99.90;;;;;;4985090;28;20630;-79
2022/10/15 12:24:43;;;;;;;3.73;3.30;;;16.60;99.90;;;;;;4984858;28;20199;-78
2022/10/15 12:27:24;;;;;;;5.87;3.70;;;16.80;99.90;;;;;;5002508;28;20252;-84
2022/10/15 12:30:10;;;;;;;4.30;3.70;;;17.10;99.90;;;;;;4987801;28;20214;-85
2022/10/15 12:32:47;;;;;;;3.90;3.50;;;17.20;99.90;;;;;;4985553;28;20554;-86
2022/10/15 12:35:14;;;;;;;4.23;3.83;;;17.10;99.90;;;;;;4986426;28;20515;-78
2022/10/15 12:37:44;;;;;;;7.37;4.70;;;17.30;99.90;;;;;;4982670;28;20208;-78
2022/10/15 12:40:21;;;;;;;5.00;3.80;;;17.30;99.90;;;;;;4984071;28;20215;-79
2022/10/15 12:43:01;;;;;;;5.27;4.13;;;17.40;99.90;;;;;;4987810;28;20276;-79
2022/10/15 12:45:34;;;;;;;5.40;4.90;;;17.40;99.90;;;;;;4989028;28;20564;-79
2022/10/15 12:48:19;;;;;;;8.73;5.00;;;17.40;99.90;;;;;;4989371;28;20676;-79
2022/10/15 12:50:51;;;;;;;5.33;4.43;;;17.40;99.90;;;;;;4965001;28;20868;-79
2022/10/15 12:53:31;;;;;;;9.37;6.23;;;17.50;99.90;;;;;;4972263;28;20771;-79
2022/10/15 12:56:17;;;;;;;6.10;5.50;;;17.40;99.90;;;;;;4984640;28;20210;-78
2022/10/15 12:58:53;;;;;;;6.77;5.60;;;17.40;99.90;;;;;;4998350;28;20219;-79
2022/10/15 13:01:20;;;;;;;6.00;5.40;;;17.40;99.90;;;;;;4985743;28;20195;-78